sensor_id;sensor_type;location;lat;lon;timestamp;temperature;humidity
18101;DHT22;9177;49.156;8.142;2023-02-16T00:01:51;20.70;83.50
18101;DHT22;9177;49.156;8.142;2023-02-16T00:04:21;20.70;83.40
18101;DHT22;9177;49.156;8.142;2023-02-16T00:06:50;20.70;83.40
18101;DHT22;9177;49.156;8.142;2023-02-16T00:09:18;20.70;83.30
18101;DHT22;9177;49.156;8.142;2023-02-16T00:11:45;20.70;83.20
18101;DHT22;9177;49.156;8.142;2023-02-16T00:14:33;20.70;83.20
18101;DHT22;9177;49.156;8.142;2023-02-16T00:17:00;20.70;83.10
18101;DHT22;9177;49.156;8.142;2023-02-16T00:19:33;20.70;83.10
18101;DHT22;9177;49.156;8.142;2023-02-16T00:22:01;20.70;83.10
18101;DHT22;9177;49.156;8.142;2023-02-16T00:24:29;20.70;82.90
18101;DHT22;9177;49.156;8.142;2023-02-16T00:26:57;20.70;83.00
18101;DHT22;9177;49.156;8.142;2023-02-16T00:29:27;20.70;82.90
18101;DHT22;9177;49.156;8.142;2023-02-16T00:31:56;20.70;82.90
18101;DHT22;9177;49.156;8.142;2023-02-16T00:34:31;20.70;82.90
18101;DHT22;9177;49.156;8.142;2023-02-16T00:37:00;20.70;82.80
18101;DHT22;9177;49.156;8.142;2023-02-16T00:39:27;20.70;82.80
18101;DHT22;9177;49.156;8.142;2023-02-16T00:41:57;20.60;83.60
18101;DHT22;9177;49.156;8.142;2023-02-16T00:44:30;20.70;82.80
18101;DHT22;9177;49.156;8.142;2023-02-16T00:46:58;20.70;82.70
18101;DHT22;9177;49.156;8.142;2023-02-16T00:49:26;20.60;82.60
18101;DHT22;9177;49.156;8.142;2023-02-16T00:51:54;20.70;82.50
18101;DHT22;9177;49.156;8.142;2023-02-16T00:54:21;20.70;82.50
18101;DHT22;9177;49.156;8.142;2023-02-16T00:56:48;20.70;82.40
18101;DHT22;9177;49.156;8.142;2023-02-16T00:59:18;20.70;82.40
18101;DHT22;9177;49.156;8.142;2023-02-16T01:01:46;20.70;82.40
18101;DHT22;9177;49.156;8.142;2023-02-16T01:04:18;20.70;82.30
18101;DHT22;9177;49.156;8.142;2023-02-16T01:06:45;20.70;82.30
18101;DHT22;9177;49.156;8.142;2023-02-16T01:09:31;20.70;82.30
18101;DHT22;9177;49.156;8.142;2023-02-16T01:12:18;20.70;82.20
18101;DHT22;9177;49.156;8.142;2023-02-16T01:14:49;20.70;82.10
18101;DHT22;9177;49.156;8.142;2023-02-16T01:17:16;20.70;82.10
18101;DHT22;9177;49.156;8.142;2023-02-16T01:19:43;20.70;82.10
18101;DHT22;9177;49.156;8.142;2023-02-16T01:22:10;20.70;82.00
18101;DHT22;9177;49.156;8.142;2023-02-16T01:24:38;20.70;82.00
18101;DHT22;9177;49.156;8.142;2023-02-16T01:27:05;20.70;82.00
18101;DHT22;9177;49.156;8.142;2023-02-16T01:29:35;20.70;81.90
18101;DHT22;9177;49.156;8.142;2023-02-16T01:32:02;20.70;82.00
18101;DHT22;9177;49.156;8.142;2023-02-16T01:34:29;20.70;81.90
18101;DHT22;9177;49.156;8.142;2023-02-16T01:36:56;20.70;81.90
18101;DHT22;9177;49.156;8.142;2023-02-16T01:39:23;20.60;81.80
18101;DHT22;9177;49.156;8.142;2023-02-16T01:41:58;20.70;81.90
18101;DHT22;9177;49.156;8.142;2023-02-16T01:44:31;20.60;81.70
18101;DHT22;9177;49.156;8.142;2023-02-16T01:47:02;20.70;81.80
18101;DHT22;9177;49.156;8.142;2023-02-16T01:49:31;20.60;81.70
18101;DHT22;9177;49.156;8.142;2023-02-16T01:52:03;20.70;81.70
18101;DHT22;9177;49.156;8.142;2023-02-16T01:54:35;20.60;81.60
18101;DHT22;9177;49.156;8.142;2023-02-16T01:57:18;20.70;81.60
18101;DHT22;9177;49.156;8.142;2023-02-16T02:00:16;20.70;81.60
18101;DHT22;9177;49.156;8.142;2023-02-16T02:02:47;20.70;81.50
18101;DHT22;9177;49.156;8.142;2023-02-16T02:05:22;20.70;81.50
18101;DHT22;9177;49.156;8.142;2023-02-16T02:08:08;20.60;81.40
18101;DHT22;9177;49.156;8.142;2023-02-16T02:10:43;20.60;81.40
18101;DHT22;9177;49.156;8.142;2023-02-16T02:13:20;20.60;81.40
18101;DHT22;9177;49.156;8.142;2023-02-16T02:15:48;20.60;81.40
18101;DHT22;9177;49.156;8.142;2023-02-16T02:18:14;20.70;81.40
18101;DHT22;9177;49.156;8.142;2023-02-16T02:20:56;20.60;81.20
18101;DHT22;9177;49.156;8.142;2023-02-16T02:24:01;20.60;81.20
18101;DHT22;9177;49.156;8.142;2023-02-16T02:26:43;20.70;81.30
18101;DHT22;9177;49.156;8.142;2023-02-16T02:29:28;20.60;81.20
18101;DHT22;9177;49.156;8.142;2023-02-16T02:32:06;20.60;81.10
18101;DHT22;9177;49.156;8.142;2023-02-16T02:34:47;20.60;81.10
18101;DHT22;9177;49.156;8.142;2023-02-16T02:37:21;20.60;81.10
18101;DHT22;9177;49.156;8.142;2023-02-16T02:39:59;20.60;81.10
18101;DHT22;9177;49.156;8.142;2023-02-16T02:42:38;20.60;81.10
18101;DHT22;9177;49.156;8.142;2023-02-16T02:45:10;20.60;81.00
18101;DHT22;9177;49.156;8.142;2023-02-16T02:47:40;20.60;80.90
18101;DHT22;9177;49.156;8.142;2023-02-16T02:50:31;20.60;80.90
18101;DHT22;9177;49.156;8.142;2023-02-16T02:53:03;20.60;80.90
18101;DHT22;9177;49.156;8.142;2023-02-16T02:55:31;20.70;80.90
18101;DHT22;9177;49.156;8.142;2023-02-16T02:58:19;20.70;80.90
18101;DHT22;9177;49.156;8.142;2023-02-16T03:01:06;20.70;80.80
18101;DHT22;9177;49.156;8.142;2023-02-16T03:03:36;20.70;80.70
18101;DHT22;9177;49.156;8.142;2023-02-16T03:06:08;20.70;80.70
18101;DHT22;9177;49.156;8.142;2023-02-16T03:08:38;20.70;80.70
18101;DHT22;9177;49.156;8.142;2023-02-16T03:11:08;20.70;80.70
18101;DHT22;9177;49.156;8.142;2023-02-16T03:13:57;20.70;80.70
18101;DHT22;9177;49.156;8.142;2023-02-16T03:16:29;20.70;80.70
18101;DHT22;9177;49.156;8.142;2023-02-16T03:18:57;20.70;80.70
18101;DHT22;9177;49.156;8.142;2023-02-16T03:21:42;20.60;80.60
18101;DHT22;9177;49.156;8.142;2023-02-16T03:24:29;20.60;80.50
18101;DHT22;9177;49.156;8.142;2023-02-16T03:27:18;20.60;80.50
18101;DHT22;9177;49.156;8.142;2023-02-16T03:30:07;20.60;80.50
18101;DHT22;9177;49.156;8.142;2023-02-16T03:32:35;20.60;80.50
18101;DHT22;9177;49.156;8.142;2023-02-16T03:35:03;20.60;80.50
18101;DHT22;9177;49.156;8.142;2023-02-16T03:37:30;20.60;80.50
18101;DHT22;9177;49.156;8.142;2023-02-16T03:39:58;20.60;80.50
18101;DHT22;9177;49.156;8.142;2023-02-16T03:42:48;20.60;80.50
18101;DHT22;9177;49.156;8.142;2023-02-16T03:45:16;20.60;80.50
18101;DHT22;9177;49.156;8.142;2023-02-16T03:47:43;20.60;80.40
18101;DHT22;9177;49.156;8.142;2023-02-16T03:50:10;20.60;80.40
18101;DHT22;9177;49.156;8.142;2023-02-16T03:52:37;20.60;80.40
18101;DHT22;9177;49.156;8.142;2023-02-16T03:55:05;20.60;80.40
18101;DHT22;9177;49.156;8.142;2023-02-16T03:57:32;20.60;80.30
18101;DHT22;9177;49.156;8.142;2023-02-16T03:59:58;20.60;80.30
18101;DHT22;9177;49.156;8.142;2023-02-16T04:02:27;20.60;80.40
18101;DHT22;9177;49.156;8.142;2023-02-16T04:04:55;20.60;80.30
18101;DHT22;9177;49.156;8.142;2023-02-16T04:07:22;20.60;80.20
18101;DHT22;9177;49.156;8.142;2023-02-16T04:09:49;20.60;80.20
18101;DHT22;9177;49.156;8.142;2023-02-16T04:12:16;20.60;80.20
18101;DHT22;9177;49.156;8.142;2023-02-16T04:15:02;20.60;80.20
18101;DHT22;9177;49.156;8.142;2023-02-16T04:17:30;20.60;80.20
18101;DHT22;9177;49.156;8.142;2023-02-16T04:19:57;20.60;80.20
18101;DHT22;9177;49.156;8.142;2023-02-16T04:22:24;20.60;80.10
18101;DHT22;9177;49.156;8.142;2023-02-16T04:24:51;20.60;80.20
18101;DHT22;9177;49.156;8.142;2023-02-16T04:27:18;20.60;80.20
18101;DHT22;9177;49.156;8.142;2023-02-16T04:29:45;20.60;80.20
18101;DHT22;9177;49.156;8.142;2023-02-16T04:32:12;20.60;80.20
18101;DHT22;9177;49.156;8.142;2023-02-16T04:34:40;20.60;80.10
18101;DHT22;9177;49.156;8.142;2023-02-16T04:37:07;20.60;80.00
18101;DHT22;9177;49.156;8.142;2023-02-16T04:39:33;20.60;80.00
18101;DHT22;9177;49.156;8.142;2023-02-16T04:42:00;20.60;80.00
18101;DHT22;9177;49.156;8.142;2023-02-16T04:44:27;20.60;80.00
18101;DHT22;9177;49.156;8.142;2023-02-16T04:46:54;20.60;79.90
18101;DHT22;9177;49.156;8.142;2023-02-16T04:49:21;20.60;80.00
18101;DHT22;9177;49.156;8.142;2023-02-16T04:51:49;20.60;79.90
18101;DHT22;9177;49.156;8.142;2023-02-16T04:54:16;20.60;79.90
18101;DHT22;9177;49.156;8.142;2023-02-16T04:56:43;20.60;79.90
18101;DHT22;9177;49.156;8.142;2023-02-16T04:59:10;20.60;79.90
18101;DHT22;9177;49.156;8.142;2023-02-16T05:01:37;20.60;79.90
18101;DHT22;9177;49.156;8.142;2023-02-16T05:04:04;20.60;79.80
18101;DHT22;9177;49.156;8.142;2023-02-16T05:06:33;20.60;79.80
18101;DHT22;9177;49.156;8.142;2023-02-16T05:09:02;20.60;79.70
18101;DHT22;9177;49.156;8.142;2023-02-16T05:11:29;20.70;79.70
18101;DHT22;9177;49.156;8.142;2023-02-16T05:14:18;20.60;79.70
18101;DHT22;9177;49.156;8.142;2023-02-16T05:17:02;20.60;79.70
18101;DHT22;9177;49.156;8.142;2023-02-16T05:19:32;20.60;79.70
18101;DHT22;9177;49.156;8.142;2023-02-16T05:21:59;20.60;79.70
18101;DHT22;9177;49.156;8.142;2023-02-16T05:24:27;20.60;79.60
18101;DHT22;9177;49.156;8.142;2023-02-16T05:26:54;20.60;79.50
18101;DHT22;9177;49.156;8.142;2023-02-16T05:29:21;20.60;79.60
18101;DHT22;9177;49.156;8.142;2023-02-16T05:31:48;20.60;79.60
18101;DHT22;9177;49.156;8.142;2023-02-16T05:34:15;20.60;79.70
18101;DHT22;9177;49.156;8.142;2023-02-16T05:36:41;20.60;79.60
18101;DHT22;9177;49.156;8.142;2023-02-16T05:39:08;20.60;79.60
18101;DHT22;9177;49.156;8.142;2023-02-16T05:41:36;20.60;79.60
18101;DHT22;9177;49.156;8.142;2023-02-16T05:44:04;20.60;79.60
18101;DHT22;9177;49.156;8.142;2023-02-16T05:46:34;20.60;79.50
18101;DHT22;9177;49.156;8.142;2023-02-16T05:49:02;20.60;79.50
18101;DHT22;9177;49.156;8.142;2023-02-16T05:51:29;20.60;79.50
18101;DHT22;9177;49.156;8.142;2023-02-16T05:53:56;20.60;79.50
18101;DHT22;9177;49.156;8.142;2023-02-16T05:56:24;20.60;80.40
18101;DHT22;9177;49.156;8.142;2023-02-16T05:58:53;20.60;79.50
18101;DHT22;9177;49.156;8.142;2023-02-16T06:01:20;20.60;79.60
18101;DHT22;9177;49.156;8.142;2023-02-16T06:03:47;20.60;79.50
18101;DHT22;9177;49.156;8.142;2023-02-16T06:06:16;20.60;79.50
18101;DHT22;9177;49.156;8.142;2023-02-16T06:08:43;20.60;79.50
18101;DHT22;9177;49.156;8.142;2023-02-16T06:11:10;20.60;79.50
18101;DHT22;9177;49.156;8.142;2023-02-16T06:13:52;20.60;79.50
18101;DHT22;9177;49.156;8.142;2023-02-16T06:16:23;20.60;79.50
18101;DHT22;9177;49.156;8.142;2023-02-16T06:18:59;20.60;79.50
18101;DHT22;9177;49.156;8.142;2023-02-16T06:21:27;20.60;79.40
18101;DHT22;9177;49.156;8.142;2023-02-16T06:23:55;20.60;79.40
18101;DHT22;9177;49.156;8.142;2023-02-16T06:26:22;20.60;79.50
18101;DHT22;9177;49.156;8.142;2023-02-16T06:28:53;20.70;79.50
18101;DHT22;9177;49.156;8.142;2023-02-16T06:31:20;20.60;79.40
18101;DHT22;9177;49.156;8.142;2023-02-16T06:33:48;20.60;79.40
18101;DHT22;9177;49.156;8.142;2023-02-16T06:36:15;20.60;79.40
18101;DHT22;9177;49.156;8.142;2023-02-16T06:38:42;20.60;79.40
18101;DHT22;9177;49.156;8.142;2023-02-16T06:41:10;20.60;79.30
18101;DHT22;9177;49.156;8.142;2023-02-16T06:43:37;20.70;79.40
18101;DHT22;9177;49.156;8.142;2023-02-16T06:46:05;20.70;79.30
18101;DHT22;9177;49.156;8.142;2023-02-16T06:48:32;20.70;79.40
18101;DHT22;9177;49.156;8.142;2023-02-16T06:50:59;20.70;79.40
18101;DHT22;9177;49.156;8.142;2023-02-16T06:53:26;20.60;79.30
18101;DHT22;9177;49.156;8.142;2023-02-16T06:55:56;20.60;79.30
18101;DHT22;9177;49.156;8.142;2023-02-16T06:58:28;20.60;79.30
18101;DHT22;9177;49.156;8.142;2023-02-16T07:00:55;20.60;79.30
18101;DHT22;9177;49.156;8.142;2023-02-16T07:03:24;20.60;79.30
18101;DHT22;9177;49.156;8.142;2023-02-16T07:05:51;20.60;79.30
18101;DHT22;9177;49.156;8.142;2023-02-16T07:08:18;20.60;79.30
18101;DHT22;9177;49.156;8.142;2023-02-16T07:10:46;20.60;79.40
18101;DHT22;9177;49.156;8.142;2023-02-16T07:13:13;20.60;79.40
18101;DHT22;9177;49.156;8.142;2023-02-16T07:15:40;20.60;79.40
18101;DHT22;9177;49.156;8.142;2023-02-16T07:18:06;20.60;79.40
18101;DHT22;9177;49.156;8.142;2023-02-16T07:20:36;20.60;79.40
18101;DHT22;9177;49.156;8.142;2023-02-16T07:23:03;20.60;79.40
18101;DHT22;9177;49.156;8.142;2023-02-16T07:25:31;20.60;79.50
18101;DHT22;9177;49.156;8.142;2023-02-16T07:27:58;20.50;79.40
18101;DHT22;9177;49.156;8.142;2023-02-16T07:30:25;20.50;79.50
18101;DHT22;9177;49.156;8.142;2023-02-16T07:32:52;20.50;79.50
18101;DHT22;9177;49.156;8.142;2023-02-16T07:35:21;20.50;79.60
18101;DHT22;9177;49.156;8.142;2023-02-16T07:37:50;20.50;79.60
18101;DHT22;9177;49.156;8.142;2023-02-16T07:40:17;20.50;79.50
18101;DHT22;9177;49.156;8.142;2023-02-16T07:42:43;20.50;79.50
18101;DHT22;9177;49.156;8.142;2023-02-16T07:45:10;20.50;79.50
18101;DHT22;9177;49.156;8.142;2023-02-16T07:47:37;20.60;79.60
18101;DHT22;9177;49.156;8.142;2023-02-16T07:50:05;20.60;79.50
18101;DHT22;9177;49.156;8.142;2023-02-16T07:52:33;20.60;79.50
18101;DHT22;9177;49.156;8.142;2023-02-16T07:55:02;20.60;79.50
18101;DHT22;9177;49.156;8.142;2023-02-16T07:57:29;20.60;79.50
18101;DHT22;9177;49.156;8.142;2023-02-16T07:59:56;20.60;79.40
18101;DHT22;9177;49.156;8.142;2023-02-16T08:02:26;20.60;79.40
18101;DHT22;9177;49.156;8.142;2023-02-16T08:04:52;20.70;79.50
18101;DHT22;9177;49.156;8.142;2023-02-16T08:07:20;20.60;79.40
18101;DHT22;9177;49.156;8.142;2023-02-16T08:09:47;20.60;79.50
18101;DHT22;9177;49.156;8.142;2023-02-16T08:12:16;20.60;79.50
18101;DHT22;9177;49.156;8.142;2023-02-16T08:14:52;20.60;79.50
18101;DHT22;9177;49.156;8.142;2023-02-16T08:17:19;20.60;79.50
18101;DHT22;9177;49.156;8.142;2023-02-16T08:19:46;20.70;79.60
18101;DHT22;9177;49.156;8.142;2023-02-16T08:22:13;20.70;79.60
18101;DHT22;9177;49.156;8.142;2023-02-16T08:24:40;20.70;79.50
18101;DHT22;9177;49.156;8.142;2023-02-16T08:27:08;20.70;79.50
18101;DHT22;9177;49.156;8.142;2023-02-16T08:29:36;20.70;79.50
18101;DHT22;9177;49.156;8.142;2023-02-16T08:32:03;20.70;79.50
18101;DHT22;9177;49.156;8.142;2023-02-16T08:34:35;20.70;79.50
18101;DHT22;9177;49.156;8.142;2023-02-16T08:37:03;20.70;79.50
18101;DHT22;9177;49.156;8.142;2023-02-16T08:39:31;20.70;79.50
18101;DHT22;9177;49.156;8.142;2023-02-16T08:42:00;20.70;79.50
18101;DHT22;9177;49.156;8.142;2023-02-16T08:44:28;20.70;79.60
18101;DHT22;9177;49.156;8.142;2023-02-16T08:46:58;20.70;79.60
18101;DHT22;9177;49.156;8.142;2023-02-16T08:49:26;20.70;79.60
18101;DHT22;9177;49.156;8.142;2023-02-16T08:51:57;20.70;79.70
18101;DHT22;9177;49.156;8.142;2023-02-16T08:54:27;20.70;79.70
18101;DHT22;9177;49.156;8.142;2023-02-16T08:56:56;20.80;79.70
18101;DHT22;9177;49.156;8.142;2023-02-16T08:59:25;20.80;79.70
18101;DHT22;9177;49.156;8.142;2023-02-16T09:01:52;20.80;79.60
18101;DHT22;9177;49.156;8.142;2023-02-16T09:04:22;20.80;79.60
18101;DHT22;9177;49.156;8.142;2023-02-16T09:06:50;20.90;79.60
18101;DHT22;9177;49.156;8.142;2023-02-16T09:09:18;20.90;79.60
18101;DHT22;9177;49.156;8.142;2023-02-16T09:11:45;20.90;79.60
18101;DHT22;9177;49.156;8.142;2023-02-16T09:14:13;20.90;79.60
18101;DHT22;9177;49.156;8.142;2023-02-16T09:16:40;20.90;79.70
18101;DHT22;9177;49.156;8.142;2023-02-16T09:19:11;20.90;79.80
18101;DHT22;9177;49.156;8.142;2023-02-16T09:21:41;20.90;79.80
18101;DHT22;9177;49.156;8.142;2023-02-16T09:24:08;20.90;79.80
18101;DHT22;9177;49.156;8.142;2023-02-16T09:26:38;20.90;79.80
18101;DHT22;9177;49.156;8.142;2023-02-16T09:29:08;20.90;79.80
18101;DHT22;9177;49.156;8.142;2023-02-16T09:31:36;21.00;79.90
18101;DHT22;9177;49.156;8.142;2023-02-16T09:34:14;21.00;79.80
18101;DHT22;9177;49.156;8.142;2023-02-16T09:36:43;21.00;80.00
18101;DHT22;9177;49.156;8.142;2023-02-16T09:39:11;21.00;79.90
18101;DHT22;9177;49.156;8.142;2023-02-16T09:42:01;21.10;79.80
18101;DHT22;9177;49.156;8.142;2023-02-16T09:44:40;21.10;79.80
18101;DHT22;9177;49.156;8.142;2023-02-16T09:47:14;21.10;80.00
18101;DHT22;9177;49.156;8.142;2023-02-16T09:49:44;21.10;80.00
18101;DHT22;9177;49.156;8.142;2023-02-16T09:52:18;21.00;79.90
18101;DHT22;9177;49.156;8.142;2023-02-16T09:54:52;21.10;80.10
18101;DHT22;9177;49.156;8.142;2023-02-16T09:57:22;21.10;80.10
18101;DHT22;9177;49.156;8.142;2023-02-16T10:00:02;21.10;80.10
18101;DHT22;9177;49.156;8.142;2023-02-16T10:02:39;21.20;80.10
18101;DHT22;9177;49.156;8.142;2023-02-16T10:05:17;21.20;80.00
18101;DHT22;9177;49.156;8.142;2023-02-16T10:08:02;21.30;79.90
18101;DHT22;9177;49.156;8.142;2023-02-16T10:10:46;21.30;79.90
18101;DHT22;9177;49.156;8.142;2023-02-16T10:13:20;21.40;80.70
18101;DHT22;9177;49.156;8.142;2023-02-16T10:15:50;21.40;79.80
18101;DHT22;9177;49.156;8.142;2023-02-16T10:18:23;21.40;79.80
18101;DHT22;9177;49.156;8.142;2023-02-16T10:20:54;21.40;79.90
18101;DHT22;9177;49.156;8.142;2023-02-16T10:23:33;21.40;79.80
18101;DHT22;9177;49.156;8.142;2023-02-16T10:26:13;21.50;79.90
18101;DHT22;9177;49.156;8.142;2023-02-16T10:28:45;21.50;79.80
18101;DHT22;9177;49.156;8.142;2023-02-16T10:31:18;21.60;79.80
18101;DHT22;9177;49.156;8.142;2023-02-16T10:33:57;21.60;79.80
18101;DHT22;9177;49.156;8.142;2023-02-16T10:36:40;21.70;79.80
18101;DHT22;9177;49.156;8.142;2023-02-16T10:39:16;21.70;79.80
18101;DHT22;9177;49.156;8.142;2023-02-16T10:41:47;21.80;79.70
18101;DHT22;9177;49.156;8.142;2023-02-16T10:44:21;21.80;79.70
18101;DHT22;9177;49.156;8.142;2023-02-16T10:46:56;21.80;79.70
18101;DHT22;9177;49.156;8.142;2023-02-16T10:49:25;21.80;79.70
18101;DHT22;9177;49.156;8.142;2023-02-16T10:51:55;21.80;79.80
18101;DHT22;9177;49.156;8.142;2023-02-16T10:54:26;21.80;80.10
18101;DHT22;9177;49.156;8.142;2023-02-16T10:56:59;21.80;80.10
18101;DHT22;9177;49.156;8.142;2023-02-16T10:59:32;21.70;79.90
18101;DHT22;9177;49.156;8.142;2023-02-16T11:02:12;21.70;80.40
18101;DHT22;9177;49.156;8.142;2023-02-16T11:04:44;21.70;80.60
18101;DHT22;9177;49.156;8.142;2023-02-16T11:07:13;21.60;80.80
18101;DHT22;9177;49.156;8.142;2023-02-16T11:09:44;21.60;80.60
18101;DHT22;9177;49.156;8.142;2023-02-16T11:12:27;21.60;80.50
18101;DHT22;9177;49.156;8.142;2023-02-16T11:14:57;21.60;80.60
18101;DHT22;9177;49.156;8.142;2023-02-16T11:17:26;21.60;80.60
18101;DHT22;9177;49.156;8.142;2023-02-16T11:19:55;21.50;80.60
18101;DHT22;9177;49.156;8.142;2023-02-16T11:22:29;21.50;80.60
18101;DHT22;9177;49.156;8.142;2023-02-16T11:25:17;21.50;80.50
18101;DHT22;9177;49.156;8.142;2023-02-16T11:27:50;21.60;80.50
18101;DHT22;9177;49.156;8.142;2023-02-16T11:30:25;21.60;80.20
18101;DHT22;9177;49.156;8.142;2023-02-16T11:32:55;21.60;80.20
18101;DHT22;9177;49.156;8.142;2023-02-16T11:35:22;21.60;80.20
18101;DHT22;9177;49.156;8.142;2023-02-16T11:37:49;21.50;80.10
18101;DHT22;9177;49.156;8.142;2023-02-16T11:40:21;21.50;80.20
18101;DHT22;9177;49.156;8.142;2023-02-16T11:42:50;21.40;80.10
18101;DHT22;9177;49.156;8.142;2023-02-16T11:45:25;21.40;80.00
18101;DHT22;9177;49.156;8.142;2023-02-16T11:47:54;21.40;80.00
18101;DHT22;9177;49.156;8.142;2023-02-16T11:50:24;21.40;80.10
18101;DHT22;9177;49.156;8.142;2023-02-16T11:52:55;21.30;80.10
18101;DHT22;9177;49.156;8.142;2023-02-16T11:55:26;21.30;80.10
18101;DHT22;9177;49.156;8.142;2023-02-16T11:58:13;21.30;81.00
18101;DHT22;9177;49.156;8.142;2023-02-16T12:00:45;21.30;80.10
18101;DHT22;9177;49.156;8.142;2023-02-16T12:03:21;21.30;80.20
18101;DHT22;9177;49.156;8.142;2023-02-16T12:06:11;21.30;80.10
18101;DHT22;9177;49.156;8.142;2023-02-16T12:08:51;21.20;81.30
18101;DHT22;9177;49.156;8.142;2023-02-16T12:11:29;21.20;80.70
18101;DHT22;9177;49.156;8.142;2023-02-16T12:17:12;21.50;80.10
18101;DHT22;9177;49.156;8.142;2023-02-16T12:19:44;21.70;79.60
18101;DHT22;9177;49.156;8.142;2023-02-16T12:22:25;21.70;79.50
18101;DHT22;9177;49.156;8.142;2023-02-16T12:25:04;21.70;79.40
18101;DHT22;9177;49.156;8.142;2023-02-16T12:27:43;21.70;79.50
18101;DHT22;9177;49.156;8.142;2023-02-16T12:30:21;21.70;79.40
18101;DHT22;9177;49.156;8.142;2023-02-16T12:33:00;21.80;79.40
18101;DHT22;9177;49.156;8.142;2023-02-16T12:35:49;21.80;79.30
18101;DHT22;9177;49.156;8.142;2023-02-16T12:38:27;21.90;79.30
18101;DHT22;9177;49.156;8.142;2023-02-16T12:41:23;22.00;79.10
18101;DHT22;9177;49.156;8.142;2023-02-16T12:43:56;21.90;79.80
18101;DHT22;9177;49.156;8.142;2023-02-16T12:46:30;21.80;79.40
18101;DHT22;9177;49.156;8.142;2023-02-16T12:49:01;21.70;79.60
18101;DHT22;9177;49.156;8.142;2023-02-16T12:51:34;21.70;79.70
18101;DHT22;9177;49.156;8.142;2023-02-16T12:54:07;21.60;79.80
18101;DHT22;9177;49.156;8.142;2023-02-16T12:56:39;21.50;80.10
18101;DHT22;9177;49.156;8.142;2023-02-16T12:59:17;21.40;80.30
18101;DHT22;9177;49.156;8.142;2023-02-16T13:01:45;21.30;80.50
18101;DHT22;9177;49.156;8.142;2023-02-16T13:04:19;21.20;80.80
18101;DHT22;9177;49.156;8.142;2023-02-16T13:06:51;21.20;81.30
18101;DHT22;9177;49.156;8.142;2023-02-16T13:09:28;21.10;81.40
18101;DHT22;9177;49.156;8.142;2023-02-16T13:12:05;21.00;81.80
18101;DHT22;9177;49.156;8.142;2023-02-16T13:14:39;21.00;81.90
18101;DHT22;9177;49.156;8.142;2023-02-16T13:17:11;20.90;82.20
18101;DHT22;9177;49.156;8.142;2023-02-16T13:19:41;20.90;82.40
18101;DHT22;9177;49.156;8.142;2023-02-16T13:22:42;20.80;82.30
18101;DHT22;9177;49.156;8.142;2023-02-16T13:25:41;20.80;82.00
18101;DHT22;9177;49.156;8.142;2023-02-16T13:28:28;20.70;81.90
18101;DHT22;9177;49.156;8.142;2023-02-16T13:31:22;20.70;82.10
18101;DHT22;9177;49.156;8.142;2023-02-16T13:34:25;20.70;82.10
18101;DHT22;9177;49.156;8.142;2023-02-16T13:37:13;20.70;82.20
18101;DHT22;9177;49.156;8.142;2023-02-16T13:39:57;20.60;82.30
18101;DHT22;9177;49.156;8.142;2023-02-16T13:45:27;20.50;82.40
18101;DHT22;9177;49.156;8.142;2023-02-16T13:47:57;20.50;82.60
18101;DHT22;9177;49.156;8.142;2023-02-16T13:50:28;20.50;82.60
18101;DHT22;9177;49.156;8.142;2023-02-16T13:52:57;20.40;82.80
18101;DHT22;9177;49.156;8.142;2023-02-16T13:55:36;20.40;82.80
18101;DHT22;9177;49.156;8.142;2023-02-16T13:58:06;20.40;82.80
18101;DHT22;9177;49.156;8.142;2023-02-16T14:00:35;20.40;82.60
18101;DHT22;9177;49.156;8.142;2023-02-16T14:03:11;20.50;82.60
18101;DHT22;9177;49.156;8.142;2023-02-16T14:05:41;20.50;82.60
18101;DHT22;9177;49.156;8.142;2023-02-16T14:08:14;20.50;82.70
18101;DHT22;9177;49.156;8.142;2023-02-16T14:11:05;20.50;82.70
18101;DHT22;9177;49.156;8.142;2023-02-16T14:13:46;20.50;82.60
18101;DHT22;9177;49.156;8.142;2023-02-16T14:16:32;20.50;82.60
18101;DHT22;9177;49.156;8.142;2023-02-16T14:19:04;20.50;82.70
18101;DHT22;9177;49.156;8.142;2023-02-16T14:21:43;20.50;82.80
18101;DHT22;9177;49.156;8.142;2023-02-16T14:24:21;20.50;82.80
18101;DHT22;9177;49.156;8.142;2023-02-16T14:26:54;20.40;82.90
18101;DHT22;9177;49.156;8.142;2023-02-16T14:29:26;20.40;83.00
18101;DHT22;9177;49.156;8.142;2023-02-16T14:31:59;20.40;83.10
18101;DHT22;9177;49.156;8.142;2023-02-16T14:34:33;20.40;83.00
18101;DHT22;9177;49.156;8.142;2023-02-16T14:37:26;20.40;83.10
18101;DHT22;9177;49.156;8.142;2023-02-16T14:39:55;20.40;83.10
18101;DHT22;9177;49.156;8.142;2023-02-16T14:42:32;20.40;83.10
18101;DHT22;9177;49.156;8.142;2023-02-16T14:45:09;20.40;83.10
18101;DHT22;9177;49.156;8.142;2023-02-16T14:47:48;20.40;83.20
18101;DHT22;9177;49.156;8.142;2023-02-16T14:50:30;20.40;83.30
18101;DHT22;9177;49.156;8.142;2023-02-16T14:53:21;20.40;83.30
18101;DHT22;9177;49.156;8.142;2023-02-16T14:56:25;20.40;83.30
18101;DHT22;9177;49.156;8.142;2023-02-16T14:58:58;20.40;83.40
18101;DHT22;9177;49.156;8.142;2023-02-16T15:01:27;20.40;83.40
18101;DHT22;9177;49.156;8.142;2023-02-16T15:03:55;20.40;83.40
18101;DHT22;9177;49.156;8.142;2023-02-16T15:06:30;20.40;83.50
18101;DHT22;9177;49.156;8.142;2023-02-16T15:08:59;20.40;83.50
18101;DHT22;9177;49.156;8.142;2023-02-16T15:11:30;20.40;83.50
18101;DHT22;9177;49.156;8.142;2023-02-16T15:14:06;20.40;83.50
18101;DHT22;9177;49.156;8.142;2023-02-16T15:16:37;20.40;83.60
18101;DHT22;9177;49.156;8.142;2023-02-16T15:19:10;20.40;83.80
18101;DHT22;9177;49.156;8.142;2023-02-16T15:21:41;20.40;83.60
18101;DHT22;9177;49.156;8.142;2023-02-16T15:24:21;20.40;83.60
18101;DHT22;9177;49.156;8.142;2023-02-16T15:26:53;20.40;83.70
18101;DHT22;9177;49.156;8.142;2023-02-16T15:29:23;20.40;83.80
18101;DHT22;9177;49.156;8.142;2023-02-16T15:31:52;20.40;83.80
18101;DHT22;9177;49.156;8.142;2023-02-16T15:34:27;20.40;83.80
18101;DHT22;9177;49.156;8.142;2023-02-16T15:36:55;20.40;83.80
18101;DHT22;9177;49.156;8.142;2023-02-16T15:39:27;20.50;83.80
18101;DHT22;9177;49.156;8.142;2023-02-16T15:42:13;20.50;83.80
18101;DHT22;9177;49.156;8.142;2023-02-16T15:44:42;20.50;83.80
18101;DHT22;9177;49.156;8.142;2023-02-16T15:47:12;20.50;84.60
18101;DHT22;9177;49.156;8.142;2023-02-16T15:49:40;20.50;83.80
18101;DHT22;9177;49.156;8.142;2023-02-16T15:52:12;20.50;83.80
18101;DHT22;9177;49.156;8.142;2023-02-16T15:54:41;20.50;83.80
18101;DHT22;9177;49.156;8.142;2023-02-16T15:57:13;20.50;83.80
18101;DHT22;9177;49.156;8.142;2023-02-16T15:59:46;20.40;83.90
18101;DHT22;9177;49.156;8.142;2023-02-16T16:02:16;20.40;84.10
18101;DHT22;9177;49.156;8.142;2023-02-16T16:04:47;20.40;84.10
18101;DHT22;9177;49.156;8.142;2023-02-16T16:07:24;20.40;84.10
18101;DHT22;9177;49.156;8.142;2023-02-16T16:09:52;20.40;84.10
18101;DHT22;9177;49.156;8.142;2023-02-16T16:12:19;20.40;84.10
18101;DHT22;9177;49.156;8.142;2023-02-16T16:14:49;20.40;84.10
18101;DHT22;9177;49.156;8.142;2023-02-16T16:17:21;20.40;84.10
18101;DHT22;9177;49.156;8.142;2023-02-16T16:19:48;20.40;84.20
18101;DHT22;9177;49.156;8.142;2023-02-16T16:22:31;20.40;84.20
18101;DHT22;9177;49.156;8.142;2023-02-16T16:25:02;20.40;84.20